sensor_id;sensor_type;location;lat;lon;timestamp;P1;durP1;ratioP1;P2;durP2;ratioP2
36855;SDS011;22788;51.434;6.786;2023-08-20T00:00:09;5.53;;;4.20;;
36855;SDS011;22788;51.434;6.786;2023-08-20T00:02:36;5.53;;;4.00;;
36855;SDS011;22788;51.434;6.786;2023-08-20T00:05:03;5.03;;;4.20;;
36855;SDS011;22788;51.434;6.786;2023-08-20T00:07:31;4.40;;;4.00;;
36855;SDS011;22788;51.434;6.786;2023-08-20T00:09:57;4.57;;;3.90;;
36855;SDS011;22788;51.434;6.786;2023-08-20T00:12:24;4.82;;;4.05;;
36855;SDS011;22788;51.434;6.786;2023-08-20T00:14:53;4.47;;;3.83;;
36855;SDS011;22788;51.434;6.786;2023-08-20T00:17:20;5.80;;;4.15;;
36855;SDS011;22788;51.434;6.786;2023-08-20T00:19:47;4.55;;;3.80;;
36855;SDS011;22788;51.434;6.786;2023-08-20T00:22:14;4.38;;;3.97;;
36855;SDS011;22788;51.434;6.786;2023-08-20T00:24:43;4.00;;;3.60;;
36855;SDS011;22788;51.434;6.786;2023-08-20T00:27:09;4.75;;;3.67;;
36855;SDS011;22788;51.434;6.786;2023-08-20T00:29:34;4.63;;;4.07;;
36855;SDS011;22788;51.434;6.786;2023-08-20T00:32:00;4.40;;;3.78;;
36855;SDS011;22788;51.434;6.786;2023-08-20T00:34:25;4.30;;;3.90;;
36855;SDS011;22788;51.434;6.786;2023-08-20T00:36:51;4.25;;;3.75;;
36855;SDS011;22788;51.434;6.786;2023-08-20T00:39:17;5.05;;;3.75;;
36855;SDS011;22788;51.434;6.786;2023-08-20T00:41:44;4.47;;;3.90;;
36855;SDS011;22788;51.434;6.786;2023-08-20T00:44:09;6.50;;;4.32;;
36855;SDS011;22788;51.434;6.786;2023-08-20T00:46:35;6.30;;;4.70;;
36855;SDS011;22788;51.434;6.786;2023-08-20T00:49:01;5.18;;;4.25;;
36855;SDS011;22788;51.434;6.786;2023-08-20T00:51:26;4.70;;;3.97;;
36855;SDS011;22788;51.434;6.786;2023-08-20T00:53:53;4.88;;;4.38;;
36855;SDS011;22788;51.434;6.786;2023-08-20T00:56:19;5.53;;;4.30;;
36855;SDS011;22788;51.434;6.786;2023-08-20T00:58:46;4.53;;;4.07;;
36855;SDS011;22788;51.434;6.786;2023-08-20T01:01:12;4.03;;;3.60;;
36855;SDS011;22788;51.434;6.786;2023-08-20T01:03:37;5.03;;;4.53;;
36855;SDS011;22788;51.434;6.786;2023-08-20T01:06:05;4.78;;;4.10;;
36855;SDS011;22788;51.434;6.786;2023-08-20T01:08:37;5.53;;;4.15;;
36855;SDS011;22788;51.434;6.786;2023-08-20T01:11:06;4.30;;;3.90;;
36855;SDS011;22788;51.434;6.786;2023-08-20T01:13:40;4.57;;;4.13;;
36855;SDS011;22788;51.434;6.786;2023-08-20T01:16:07;4.30;;;3.90;;
36855;SDS011;22788;51.434;6.786;2023-08-20T01:18:33;5.10;;;4.10;;
36855;SDS011;22788;51.434;6.786;2023-08-20T01:21:01;6.13;;;4.22;;
36855;SDS011;22788;51.434;6.786;2023-08-20T01:23:38;4.60;;;4.05;;
36855;SDS011;22788;51.434;6.786;2023-08-20T01:26:35;5.45;;;4.22;;
36855;SDS011;22788;51.434;6.786;2023-08-20T01:29:15;5.65;;;4.03;;
36855;SDS011;22788;51.434;6.786;2023-08-20T01:31:41;7.78;;;4.57;;
36855;SDS011;22788;51.434;6.786;2023-08-20T01:34:09;5.45;;;4.25;;
36855;SDS011;22788;51.434;6.786;2023-08-20T01:36:35;4.78;;;4.18;;
36855;SDS011;22788;51.434;6.786;2023-08-20T01:39:02;4.63;;;4.10;;
36855;SDS011;22788;51.434;6.786;2023-08-20T01:41:28;4.97;;;4.45;;
36855;SDS011;22788;51.434;6.786;2023-08-20T01:43:53;4.40;;;4.00;;
36855;SDS011;22788;51.434;6.786;2023-08-20T01:46:20;5.78;;;4.40;;
36855;SDS011;22788;51.434;6.786;2023-08-20T01:48:46;6.63;;;4.82;;
36855;SDS011;22788;51.434;6.786;2023-08-20T01:51:12;4.88;;;4.00;;
36855;SDS011;22788;51.434;6.786;2023-08-20T01:53:37;5.03;;;4.53;;
36855;SDS011;22788;51.434;6.786;2023-08-20T01:56:03;4.82;;;4.05;;
36855;SDS011;22788;51.434;6.786;2023-08-20T01:58:29;5.97;;;4.40;;
36855;SDS011;22788;51.434;6.786;2023-08-20T02:00:54;5.43;;;4.40;;
36855;SDS011;22788;51.434;6.786;2023-08-20T02:03:21;4.40;;;4.00;;
36855;SDS011;22788;51.434;6.786;2023-08-20T02:05:47;5.10;;;4.25;;
36855;SDS011;22788;51.434;6.786;2023-08-20T02:08:12;4.80;;;4.32;;
36855;SDS011;22788;51.434;6.786;2023-08-20T02:10:38;6.63;;;4.75;;
36855;SDS011;22788;51.434;6.786;2023-08-20T02:13:04;5.70;;;4.28;;
36855;SDS011;22788;51.434;6.786;2023-08-20T02:15:29;5.15;;;4.30;;
36855;SDS011;22788;51.434;6.786;2023-08-20T02:17:56;5.25;;;4.30;;
36855;SDS011;22788;51.434;6.786;2023-08-20T02:20:23;5.72;;;4.88;;
36855;SDS011;22788;51.434;6.786;2023-08-20T02:22:48;8.00;;;5.32;;
36855;SDS011;22788;51.434;6.786;2023-08-20T02:25:14;6.55;;;5.00;;
36855;SDS011;22788;51.434;6.786;2023-08-20T02:27:40;6.70;;;5.28;;
36855;SDS011;22788;51.434;6.786;2023-08-20T02:30:06;8.27;;;4.72;;
36855;SDS011;22788;51.434;6.786;2023-08-20T02:32:32;7.20;;;4.93;;
36855;SDS011;22788;51.434;6.786;2023-08-20T02:34:58;6.45;;;5.00;;
36855;SDS011;22788;51.434;6.786;2023-08-20T02:37:25;6.70;;;5.50;;
36855;SDS011;22788;51.434;6.786;2023-08-20T02:39:51;5.57;;;5.05;;
36855;SDS011;22788;51.434;6.786;2023-08-20T02:42:16;8.43;;;4.65;;
36855;SDS011;22788;51.434;6.786;2023-08-20T02:44:42;7.15;;;5.35;;
36855;SDS011;22788;51.434;6.786;2023-08-20T02:47:07;5.13;;;4.35;;
36855;SDS011;22788;51.434;6.786;2023-08-20T02:49:33;5.30;;;4.80;;
36855;SDS011;22788;51.434;6.786;2023-08-20T02:51:59;6.28;;;5.35;;
36855;SDS011;22788;51.434;6.786;2023-08-20T02:54:26;5.28;;;4.80;;
36855;SDS011;22788;51.434;6.786;2023-08-20T02:56:51;5.00;;;4.32;;
36855;SDS011;22788;51.434;6.786;2023-08-20T02:59:17;5.50;;;4.95;;
36855;SDS011;22788;51.434;6.786;2023-08-20T03:01:42;5.57;;;5.03;;
36855;SDS011;22788;51.434;6.786;2023-08-20T03:04:10;5.75;;;4.72;;
36855;SDS011;22788;51.434;6.786;2023-08-20T03:06:35;6.38;;;4.43;;
36855;SDS011;22788;51.434;6.786;2023-08-20T03:09:01;5.82;;;4.70;;
36855;SDS011;22788;51.434;6.786;2023-08-20T03:11:28;6.53;;;5.25;;
36855;SDS011;22788;51.434;6.786;2023-08-20T03:13:54;6.78;;;5.05;;
36855;SDS011;22788;51.434;6.786;2023-08-20T03:16:19;6.82;;;5.40;;
36855;SDS011;22788;51.434;6.786;2023-08-20T03:18:45;6.60;;;5.28;;
36855;SDS011;22788;51.434;6.786;2023-08-20T03:21:10;6.05;;;5.38;;
36855;SDS011;22788;51.434;6.786;2023-08-20T03:23:36;5.38;;;4.88;;
36855;SDS011;22788;51.434;6.786;2023-08-20T03:26:01;6.22;;;4.78;;
36855;SDS011;22788;51.434;6.786;2023-08-20T03:28:28;7.00;;;5.00;;
36855;SDS011;22788;51.434;6.786;2023-08-20T03:30:54;7.05;;;5.55;;
36855;SDS011;22788;51.434;6.786;2023-08-20T03:33:20;8.30;;;4.90;;
36855;SDS011;22788;51.434;6.786;2023-08-20T03:35:45;5.70;;;5.20;;
36855;SDS011;22788;51.434;6.786;2023-08-20T03:38:11;7.57;;;5.03;;
36855;SDS011;22788;51.434;6.786;2023-08-20T03:40:36;6.30;;;5.07;;
36855;SDS011;22788;51.434;6.786;2023-08-20T03:43:02;5.63;;;5.00;;
36855;SDS011;22788;51.434;6.786;2023-08-20T03:45:30;6.07;;;4.90;;
36855;SDS011;22788;51.434;6.786;2023-08-20T03:47:56;5.25;;;4.63;;
36855;SDS011;22788;51.434;6.786;2023-08-20T03:50:21;8.32;;;4.95;;
36855;SDS011;22788;51.434;6.786;2023-08-20T03:52:47;5.60;;;5.10;;
36855;SDS011;22788;51.434;6.786;2023-08-20T03:55:12;6.70;;;5.05;;
36855;SDS011;22788;51.434;6.786;2023-08-20T03:57:38;6.05;;;4.90;;
36855;SDS011;22788;51.434;6.786;2023-08-20T04:00:04;6.10;;;4.95;;
36855;SDS011;22788;51.434;6.786;2023-08-20T04:02:32;6.47;;;4.75;;
36855;SDS011;22788;51.434;6.786;2023-08-20T04:04:59;5.40;;;4.90;;
36855;SDS011;22788;51.434;6.786;2023-08-20T04:07:24;5.70;;;4.60;;
36855;SDS011;22788;51.434;6.786;2023-08-20T04:09:50;6.53;;;5.22;;
36855;SDS011;22788;51.434;6.786;2023-08-20T04:12:15;5.88;;;4.93;;
36855;SDS011;22788;51.434;6.786;2023-08-20T04:14:41;6.43;;;5.03;;
36855;SDS011;22788;51.434;6.786;2023-08-20T04:17:07;6.55;;;5.88;;
36855;SDS011;22788;51.434;6.786;2023-08-20T04:19:34;7.53;;;5.60;;
36855;SDS011;22788;51.434;6.786;2023-08-20T04:21:59;7.35;;;5.65;;
36855;SDS011;22788;51.434;6.786;2023-08-20T04:24:25;5.88;;;5.00;;
36855;SDS011;22788;51.434;6.786;2023-08-20T04:26:50;5.95;;;4.97;;
36855;SDS011;22788;51.434;6.786;2023-08-20T04:29:16;6.53;;;5.07;;
36855;SDS011;22788;51.434;6.786;2023-08-20T04:31:42;6.18;;;5.38;;
36855;SDS011;22788;51.434;6.786;2023-08-20T04:34:07;5.95;;;5.25;;
36855;SDS011;22788;51.434;6.786;2023-08-20T04:36:34;5.20;;;4.70;;
36855;SDS011;22788;51.434;6.786;2023-08-20T04:39:00;5.85;;;5.13;;
36855;SDS011;22788;51.434;6.786;2023-08-20T04:41:26;7.30;;;5.53;;
36855;SDS011;22788;51.434;6.786;2023-08-20T04:43:51;6.35;;;4.72;;
36855;SDS011;22788;51.434;6.786;2023-08-20T04:46:17;7.65;;;5.28;;
36855;SDS011;22788;51.434;6.786;2023-08-20T04:48:42;7.30;;;5.70;;
36855;SDS011;22788;51.434;6.786;2023-08-20T04:51:08;7.82;;;4.70;;
36855;SDS011;22788;51.434;6.786;2023-08-20T04:53:35;5.15;;;4.38;;
36855;SDS011;22788;51.434;6.786;2023-08-20T04:56:01;6.30;;;5.28;;
36855;SDS011;22788;51.434;6.786;2023-08-20T04:58:26;5.88;;;5.20;;
36855;SDS011;22788;51.434;6.786;2023-08-20T05:00:52;9.23;;;5.70;;
36855;SDS011;22788;51.434;6.786;2023-08-20T05:03:18;6.03;;;5.30;;
36855;SDS011;22788;51.434;6.786;2023-08-20T05:05:47;6.90;;;5.38;;
36855;SDS011;22788;51.434;6.786;2023-08-20T05:08:13;6.43;;;5.30;;
36855;SDS011;22788;51.434;6.786;2023-08-20T05:10:40;7.53;;;5.28;;
36855;SDS011;22788;51.434;6.786;2023-08-20T05:13:06;6.93;;;4.95;;
36855;SDS011;22788;51.434;6.786;2023-08-20T05:15:31;7.25;;;5.38;;
36855;SDS011;22788;51.434;6.786;2023-08-20T05:17:58;7.15;;;5.47;;
36855;SDS011;22788;51.434;6.786;2023-08-20T05:20:23;7.38;;;5.15;;
36855;SDS011;22788;51.434;6.786;2023-08-20T05:22:49;6.22;;;5.07;;
36855;SDS011;22788;51.434;6.786;2023-08-20T05:25:15;6.30;;;4.93;;
36855;SDS011;22788;51.434;6.786;2023-08-20T05:27:42;6.15;;;5.47;;
36855;SDS011;22788;51.434;6.786;2023-08-20T05:30:08;6.95;;;6.25;;
36855;SDS011;22788;51.434;6.786;2023-08-20T05:32:34;7.22;;;5.60;;
36855;SDS011;22788;51.434;6.786;2023-08-20T05:34:59;8.75;;;5.78;;
36855;SDS011;22788;51.434;6.786;2023-08-20T05:37:25;7.47;;;6.40;;
36855;SDS011;22788;51.434;6.786;2023-08-20T05:39:50;8.35;;;6.47;;
36855;SDS011;22788;51.434;6.786;2023-08-20T05:42:16;7.63;;;5.75;;
36855;SDS011;22788;51.434;6.786;2023-08-20T05:44:43;6.30;;;5.38;;
36855;SDS011;22788;51.434;6.786;2023-08-20T05:47:09;6.80;;;5.32;;
36855;SDS011;22788;51.434;6.786;2023-08-20T05:49:34;6.32;;;5.70;;
36855;SDS011;22788;51.434;6.786;2023-08-20T05:52:00;8.70;;;6.47;;
36855;SDS011;22788;51.434;6.786;2023-08-20T05:54:25;8.07;;;6.50;;
36855;SDS011;22788;51.434;6.786;2023-08-20T05:56:51;7.35;;;5.97;;
36855;SDS011;22788;51.434;6.786;2023-08-20T05:59:17;7.63;;;5.80;;
36855;SDS011;22788;51.434;6.786;2023-08-20T06:01:44;7.07;;;5.88;;
36855;SDS011;22788;51.434;6.786;2023-08-20T06:04:09;7.50;;;6.40;;
36855;SDS011;22788;51.434;6.786;2023-08-20T06:06:35;8.27;;;6.63;;
36855;SDS011;22788;51.434;6.786;2023-08-20T06:09:00;8.18;;;6.13;;
36855;SDS011;22788;51.434;6.786;2023-08-20T06:11:26;7.22;;;5.70;;
36855;SDS011;22788;51.434;6.786;2023-08-20T06:13:55;9.32;;;6.40;;
36855;SDS011;22788;51.434;6.786;2023-08-20T06:16:20;9.32;;;6.50;;
36855;SDS011;22788;51.434;6.786;2023-08-20T06:18:47;9.20;;;6.90;;
36855;SDS011;22788;51.434;6.786;2023-08-20T06:21:13;11.35;;;8.77;;
36855;SDS011;22788;51.434;6.786;2023-08-20T06:23:39;10.52;;;7.85;;
36855;SDS011;22788;51.434;6.786;2023-08-20T06:26:04;9.98;;;7.50;;
36855;SDS011;22788;51.434;6.786;2023-08-20T06:28:30;8.65;;;6.57;;
36855;SDS011;22788;51.434;6.786;2023-08-20T06:30:56;9.90;;;7.22;;
36855;SDS011;22788;51.434;6.786;2023-08-20T06:33:21;8.98;;;6.97;;
36855;SDS011;22788;51.434;6.786;2023-08-20T06:35:48;7.20;;;6.07;;
36855;SDS011;22788;51.434;6.786;2023-08-20T06:38:14;8.13;;;6.40;;
36855;SDS011;22788;51.434;6.786;2023-08-20T06:40:39;7.43;;;6.57;;
36855;SDS011;22788;51.434;6.786;2023-08-20T06:43:05;8.18;;;7.38;;
36855;SDS011;22788;51.434;6.786;2023-08-20T06:45:31;8.80;;;7.32;;
36855;SDS011;22788;51.434;6.786;2023-08-20T06:47:56;6.82;;;6.07;;
36855;SDS011;22788;51.434;6.786;2023-08-20T06:50:22;7.40;;;6.55;;
36855;SDS011;22788;51.434;6.786;2023-08-20T06:52:49;6.90;;;5.90;;
36855;SDS011;22788;51.434;6.786;2023-08-20T06:55:14;7.13;;;6.18;;
36855;SDS011;22788;51.434;6.786;2023-08-20T06:57:40;11.00;;;7.40;;
36855;SDS011;22788;51.434;6.786;2023-08-20T07:00:06;9.23;;;6.72;;
36855;SDS011;22788;51.434;6.786;2023-08-20T07:02:32;9.38;;;7.28;;
36855;SDS011;22788;51.434;6.786;2023-08-20T07:04:58;9.98;;;7.25;;
36855;SDS011;22788;51.434;6.786;2023-08-20T07:07:23;8.68;;;7.00;;
36855;SDS011;22788;51.434;6.786;2023-08-20T07:09:50;11.75;;;7.00;;
36855;SDS011;22788;51.434;6.786;2023-08-20T07:12:16;9.70;;;7.25;;
36855;SDS011;22788;51.434;6.786;2023-08-20T07:14:42;8.20;;;5.68;;
36855;SDS011;22788;51.434;6.786;2023-08-20T07:17:07;7.00;;;5.93;;
36855;SDS011;22788;51.434;6.786;2023-08-20T07:19:33;8.40;;;6.63;;
36855;SDS011;22788;51.434;6.786;2023-08-20T07:21:58;7.07;;;6.38;;
36855;SDS011;22788;51.434;6.786;2023-08-20T07:24:24;7.95;;;6.90;;
36855;SDS011;22788;51.434;6.786;2023-08-20T07:26:51;8.10;;;6.90;;
36855;SDS011;22788;51.434;6.786;2023-08-20T07:29:17;6.07;;;5.20;;
36855;SDS011;22788;51.434;6.786;2023-08-20T07:31:42;7.65;;;6.82;;
36855;SDS011;22788;51.434;6.786;2023-08-20T07:34:08;20.30;;;9.20;;
36855;SDS011;22788;51.434;6.786;2023-08-20T07:36:34;11.32;;;8.93;;
36855;SDS011;22788;51.434;6.786;2023-08-20T07:38:59;9.30;;;7.82;;
36855;SDS011;22788;51.434;6.786;2023-08-20T07:41:25;11.75;;;8.10;;
36855;SDS011;22788;51.434;6.786;2023-08-20T07:43:52;17.40;;;11.07;;
36855;SDS011;22788;51.434;6.786;2023-08-20T07:46:18;18.70;;;10.88;;
36855;SDS011;22788;51.434;6.786;2023-08-20T07:48:43;13.93;;;10.70;;
36855;SDS011;22788;51.434;6.786;2023-08-20T07:51:09;15.70;;;10.20;;
36855;SDS011;22788;51.434;6.786;2023-08-20T07:53:35;14.30;;;11.43;;
36855;SDS011;22788;51.434;6.786;2023-08-20T07:56:01;16.17;;;10.75;;
36855;SDS011;22788;51.434;6.786;2023-08-20T07:58:27;13.85;;;9.55;;
36855;SDS011;22788;51.434;6.786;2023-08-20T08:00:54;14.02;;;10.13;;
36855;SDS011;22788;51.434;6.786;2023-08-20T08:03:20;16.45;;;12.48;;
36855;SDS011;22788;51.434;6.786;2023-08-20T08:05:46;15.55;;;11.73;;
36855;SDS011;22788;51.434;6.786;2023-08-20T08:08:11;15.35;;;9.55;;
36855;SDS011;22788;51.434;6.786;2023-08-20T08:10:37;15.73;;;11.73;;
36855;SDS011;22788;51.434;6.786;2023-08-20T08:13:03;16.33;;;12.35;;
36855;SDS011;22788;51.434;6.786;2023-08-20T08:15:28;12.27;;;8.90;;
36855;SDS011;22788;51.434;6.786;2023-08-20T08:17:55;10.70;;;7.53;;
36855;SDS011;22788;51.434;6.786;2023-08-20T08:20:21;18.05;;;13.23;;
36855;SDS011;22788;51.434;6.786;2023-08-20T08:22:47;17.13;;;13.43;;
36855;SDS011;22788;51.434;6.786;2023-08-20T08:25:12;17.52;;;12.60;;
36855;SDS011;22788;51.434;6.786;2023-08-20T08:27:38;16.15;;;11.52;;
36855;SDS011;22788;51.434;6.786;2023-08-20T08:30:04;18.23;;;13.25;;
36855;SDS011;22788;51.434;6.786;2023-08-20T08:32:30;15.85;;;9.85;;
36855;SDS011;22788;51.434;6.786;2023-08-20T08:34:57;13.98;;;11.07;;
36855;SDS011;22788;51.434;6.786;2023-08-20T08:37:23;17.83;;;12.70;;
36855;SDS011;22788;51.434;6.786;2023-08-20T08:39:48;14.88;;;12.18;;
36855;SDS011;22788;51.434;6.786;2023-08-20T08:42:14;17.35;;;13.85;;
36855;SDS011;22788;51.434;6.786;2023-08-20T08:44:41;12.35;;;9.60;;
36855;SDS011;22788;51.434;6.786;2023-08-20T08:47:07;15.35;;;10.38;;
36855;SDS011;22788;51.434;6.786;2023-08-20T08:49:33;18.55;;;11.68;;
36855;SDS011;22788;51.434;6.786;2023-08-20T08:52:00;24.65;;;14.20;;
36855;SDS011;22788;51.434;6.786;2023-08-20T08:54:28;12.95;;;9.38;;
36855;SDS011;22788;51.434;6.786;2023-08-20T08:56:53;11.25;;;8.30;;
36855;SDS011;22788;51.434;6.786;2023-08-20T08:59:19;11.95;;;10.02;;
36855;SDS011;22788;51.434;6.786;2023-08-20T09:01:45;15.77;;;10.20;;
36855;SDS011;22788;51.434;6.786;2023-08-20T09:04:11;21.38;;;12.50;;
36855;SDS011;22788;51.434;6.786;2023-08-20T09:09:21;23.17;;;13.65;;
36855;SDS011;22788;51.434;6.786;2023-08-20T09:11:47;17.05;;;11.25;;
36855;SDS011;22788;51.434;6.786;2023-08-20T09:14:23;23.70;;;15.25;;
36855;SDS011;22788;51.434;6.786;2023-08-20T09:16:53;13.20;;;9.63;;
36855;SDS011;22788;51.434;6.786;2023-08-20T09:19:20;17.00;;;10.05;;
36855;SDS011;22788;51.434;6.786;2023-08-20T09:21:45;21.45;;;13.40;;
36855;SDS011;22788;51.434;6.786;2023-08-20T09:24:11;21.70;;;15.05;;
36855;SDS011;22788;51.434;6.786;2023-08-20T09:26:38;13.40;;;11.13;;
36855;SDS011;22788;51.434;6.786;2023-08-20T09:29:03;12.95;;;10.27;;
36855;SDS011;22788;51.434;6.786;2023-08-20T09:31:36;22.95;;;16.00;;
36855;SDS011;22788;51.434;6.786;2023-08-20T09:34:03;17.35;;;13.45;;
36855;SDS011;22788;51.434;6.786;2023-08-20T09:36:30;18.98;;;13.40;;
36855;SDS011;22788;51.434;6.786;2023-08-20T09:38:56;13.52;;;10.65;;
36855;SDS011;22788;51.434;6.786;2023-08-20T09:41:22;18.05;;;13.05;;
36855;SDS011;22788;51.434;6.786;2023-08-20T09:43:49;16.15;;;12.48;;
36855;SDS011;22788;51.434;6.786;2023-08-20T09:46:21;17.48;;;12.50;;
36855;SDS011;22788;51.434;6.786;2023-08-20T09:48:49;15.82;;;13.05;;
36855;SDS011;22788;51.434;6.786;2023-08-20T09:51:16;18.00;;;12.88;;
36855;SDS011;22788;51.434;6.786;2023-08-20T09:53:48;18.02;;;13.98;;
36855;SDS011;22788;51.434;6.786;2023-08-20T09:56:20;16.30;;;11.82;;
36855;SDS011;22788;51.434;6.786;2023-08-20T09:58:52;15.98;;;12.57;;
36855;SDS011;22788;51.434;6.786;2023-08-20T10:01:18;25.52;;;16.35;;
36855;SDS011;22788;51.434;6.786;2023-08-20T10:03:44;24.58;;;16.73;;
36855;SDS011;22788;51.434;6.786;2023-08-20T10:06:10;24.77;;;16.60;;
36855;SDS011;22788;51.434;6.786;2023-08-20T10:08:36;18.17;;;16.25;;
36855;SDS011;22788;51.434;6.786;2023-08-20T10:11:02;21.83;;;15.27;;
36855;SDS011;22788;51.434;6.786;2023-08-20T10:13:28;20.92;;;16.70;;
36855;SDS011;22788;51.434;6.786;2023-08-20T10:15:55;15.38;;;11.80;;
36855;SDS011;22788;51.434;6.786;2023-08-20T10:18:22;17.52;;;13.73;;
36855;SDS011;22788;51.434;6.786;2023-08-20T10:20:49;12.93;;;10.43;;
36855;SDS011;22788;51.434;6.786;2023-08-20T10:23:15;22.02;;;14.10;;
36855;SDS011;22788;51.434;6.786;2023-08-20T10:25:44;13.23;;;10.70;;
36855;SDS011;22788;51.434;6.786;2023-08-20T10:28:11;17.08;;;15.27;;
36855;SDS011;22788;51.434;6.786;2023-08-20T10:30:38;17.95;;;13.45;;
36855;SDS011;22788;51.434;6.786;2023-08-20T10:33:25;17.50;;;13.48;;
36855;SDS011;22788;51.434;6.786;2023-08-20T10:35:51;15.95;;;13.68;;
36855;SDS011;22788;51.434;6.786;2023-08-20T10:38:18;14.40;;;11.63;;
36855;SDS011;22788;51.434;6.786;2023-08-20T10:40:47;14.32;;;11.65;;
36855;SDS011;22788;51.434;6.786;2023-08-20T10:43:23;13.15;;;10.70;;
36855;SDS011;22788;51.434;6.786;2023-08-20T10:46:01;14.25;;;11.52;;
36855;SDS011;22788;51.434;6.786;2023-08-20T10:48:29;13.27;;;11.77;;
36855;SDS011;22788;51.434;6.786;2023-08-20T10:50:56;12.20;;;10.27;;
36855;SDS011;22788;51.434;6.786;2023-08-20T10:53:22;12.27;;;10.30;;
36855;SDS011;22788;51.434;6.786;2023-08-20T10:55:48;15.35;;;10.80;;
36855;SDS011;22788;51.434;6.786;2023-08-20T10:58:13;12.05;;;9.70;;
36855;SDS011;22788;51.434;6.786;2023-08-20T11:00:39;10.32;;;9.27;;
36855;SDS011;22788;51.434;6.786;2023-08-20T11:03:06;11.07;;;9.25;;
36855;SDS011;22788;51.434;6.786;2023-08-20T11:05:33;10.30;;;8.90;;
36855;SDS011;22788;51.434;6.786;2023-08-20T11:08:00;10.98;;;8.75;;
36855;SDS011;22788;51.434;6.786;2023-08-20T11:10:26;12.60;;;9.45;;
36855;SDS011;22788;51.434;6.786;2023-08-20T11:12:52;11.55;;;9.05;;
36855;SDS011;22788;51.434;6.786;2023-08-20T11:15:17;10.00;;;8.93;;
36855;SDS011;22788;51.434;6.786;2023-08-20T11:17:44;11.43;;;9.60;;
36855;SDS011;22788;51.434;6.786;2023-08-20T11:20:10;12.48;;;9.25;;
36855;SDS011;22788;51.434;6.786;2023-08-20T11:22:40;12.40;;;8.98;;
36855;SDS011;22788;51.434;6.786;2023-08-20T11:25:06;10.88;;;9.55;;
36855;SDS011;22788;51.434;6.786;2023-08-20T11:27:35;13.88;;;10.00;;
36855;SDS011;22788;51.434;6.786;2023-08-20T11:30:03;9.65;;;8.65;;
36855;SDS011;22788;51.434;6.786;2023-08-20T11:32:30;11.65;;;9.15;;
36855;SDS011;22788;51.434;6.786;2023-08-20T11:34:56;11.15;;;9.20;;
36855;SDS011;22788;51.434;6.786;2023-08-20T11:37:22;10.65;;;9.20;;
36855;SDS011;22788;51.434;6.786;2023-08-20T11:39:49;11.38;;;9.02;;
36855;SDS011;22788;51.434;6.786;2023-08-20T11:42:14;10.30;;;9.02;;
36855;SDS011;22788;51.434;6.786;2023-08-20T11:44:45;15.43;;;8.57;;
36855;SDS011;22788;51.434;6.786;2023-08-20T11:47:15;9.27;;;8.07;;
36855;SDS011;22788;51.434;6.786;2023-08-20T11:49:40;9.25;;;7.20;;
36855;SDS011;22788;51.434;6.786;2023-08-20T11:52:06;8.93;;;7.57;;
36855;SDS011;22788;51.434;6.786;2023-08-20T11:54:32;8.70;;;7.05;;
36855;SDS011;22788;51.434;6.786;2023-08-20T11:57:02;9.57;;;7.90;;
36855;SDS011;22788;51.434;6.786;2023-08-20T11:59:29;8.30;;;7.50;;
36855;SDS011;22788;51.434;6.786;2023-08-20T12:01:56;9.63;;;7.60;;
36855;SDS011;22788;51.434;6.786;2023-08-20T12:04:23;9.93;;;7.63;;
36855;SDS011;22788;51.434;6.786;2023-08-20T12:07:01;8.20;;;7.40;;
36855;SDS011;22788;51.434;6.786;2023-08-20T12:09:27;10.25;;;8.00;;
36855;SDS011;22788;51.434;6.786;2023-08-20T12:11:54;10.85;;;6.93;;
36855;SDS011;22788;51.434;6.786;2023-08-20T12:14:21;8.68;;;6.68;;
36855;SDS011;22788;51.434;6.786;2023-08-20T12:16:47;9.35;;;6.72;;
36855;SDS011;22788;51.434;6.786;2023-08-20T12:19:13;8.00;;;7.07;;
36855;SDS011;22788;51.434;6.786;2023-08-20T12:21:39;8.48;;;7.30;;
36855;SDS011;22788;51.434;6.786;2023-08-20T12:24:05;9.20;;;7.25;;
36855;SDS011;22788;51.434;6.786;2023-08-20T12:26:32;8.00;;;7.20;;
36855;SDS011;22788;51.434;6.786;2023-08-20T12:28:57;7.50;;;6.22;;
36855;SDS011;22788;51.434;6.786;2023-08-20T12:31:24;9.77;;;7.15;;
36855;SDS011;22788;51.434;6.786;2023-08-20T12:33:50;9.13;;;7.20;;
36855;SDS011;22788;51.434;6.786;2023-08-20T12:36:16;9.38;;;6.43;;
36855;SDS011;22788;51.434;6.786;2023-08-20T12:38:41;8.10;;;6.63;;
36855;SDS011;22788;51.434;6.786;2023-08-20T12:41:07;7.97;;;6.55;;
36855;SDS011;22788;51.434;6.786;2023-08-20T12:43:32;8.27;;;5.82;;
36855;SDS011;22788;51.434;6.786;2023-08-20T12:45:58;9.48;;;6.57;;
36855;SDS011;22788;51.434;6.786;2023-08-20T12:48:25;10.13;;;6.60;;
36855;SDS011;22788;51.434;6.786;2023-08-20T12:50:51;6.95;;;5.78;;
36855;SDS011;22788;51.434;6.786;2023-08-20T12:53:16;7.72;;;5.90;;
36855;SDS011;22788;51.434;6.786;2023-08-20T12:55:42;7.30;;;5.55;;
36855;SDS011;22788;51.434;6.786;2023-08-20T12:58:08;10.15;;;6.50;;
36855;SDS011;22788;51.434;6.786;2023-08-20T13:00:33;5.93;;;5.28;;
36855;SDS011;22788;51.434;6.786;2023-08-20T13:02:59;8.20;;;5.13;;
36855;SDS011;22788;51.434;6.786;2023-08-20T13:05:27;9.02;;;5.90;;
36855;SDS011;22788;51.434;6.786;2023-08-20T13:07:53;10.77;;;6.15;;
36855;SDS011;22788;51.434;6.786;2023-08-20T13:10:19;6.97;;;5.63;;
36855;SDS011;22788;51.434;6.786;2023-08-20T13:12:47;8.10;;;5.40;;
36855;SDS011;22788;51.434;6.786;2023-08-20T13:15:14;8.75;;;6.05;;
36855;SDS011;22788;51.434;6.786;2023-08-20T13:17:41;6.30;;;5.10;;
36855;SDS011;22788;51.434;6.786;2023-08-20T13:20:07;9.30;;;5.30;;
36855;SDS011;22788;51.434;6.786;2023-08-20T13:22:34;7.75;;;6.03;;
36855;SDS011;22788;51.434;6.786;2023-08-20T13:25:00;6.43;;;5.40;;
36855;SDS011;22788;51.434;6.786;2023-08-20T13:27:26;8.25;;;4.78;;
36855;SDS011;22788;51.434;6.786;2023-08-20T13:29:51;6.68;;;5.70;;
36855;SDS011;22788;51.434;6.786;2023-08-20T13:32:17;9.40;;;5.38;;
36855;SDS011;22788;51.434;6.786;2023-08-20T13:34:42;6.00;;;5.07;;
36855;SDS011;22788;51.434;6.786;2023-08-20T13:37:08;6.97;;;4.57;;
36855;SDS011;22788;51.434;6.786;2023-08-20T13:39:35;5.68;;;4.32;;
36855;SDS011;22788;51.434;6.786;2023-08-20T13:42:00;7.43;;;4.68;;
36855;SDS011;22788;51.434;6.786;2023-08-20T13:44:26;8.60;;;5.00;;
36855;SDS011;22788;51.434;6.786;2023-08-20T13:46:52;6.72;;;4.72;;
36855;SDS011;22788;51.434;6.786;2023-08-20T13:49:17;6.00;;;5.00;;
36855;SDS011;22788;51.434;6.786;2023-08-20T13:51:43;6.60;;;4.75;;
36855;SDS011;22788;51.434;6.786;2023-08-20T13:54:08;7.10;;;5.15;;
36855;SDS011;22788;51.434;6.786;2023-08-20T13:56:35;6.93;;;5.05;;
36855;SDS011;22788;51.434;6.786;2023-08-20T13:59:01;9.85;;;4.72;;
36855;SDS011;22788;51.434;6.786;2023-08-20T14:01:27;6.80;;;4.70;;
36855;SDS011;22788;51.434;6.786;2023-08-20T14:03:52;7.82;;;4.90;;
36855;SDS011;22788;51.434;6.786;2023-08-20T14:06:18;5.43;;;4.50;;
36855;SDS011;22788;51.434;6.786;2023-08-20T14:08:44;9.85;;;5.25;;
36855;SDS011;22788;51.434;6.786;2023-08-20T14:11:10;4.90;;;4.22;;
36855;SDS011;22788;51.434;6.786;2023-08-20T14:13:37;6.22;;;4.80;;
36855;SDS011;22788;51.434;6.786;2023-08-20T14:18:55;8.02;;;4.90;;
36855;SDS011;22788;51.434;6.786;2023-08-20T14:21:21;5.72;;;4.07;;
36855;SDS011;22788;51.434;6.786;2023-08-20T14:23:46;9.07;;;4.20;;
36855;SDS011;22788;51.434;6.786;2023-08-20T14:26:12;5.68;;;4.35;;
36855;SDS011;22788;51.434;6.786;2023-08-20T14:28:39;5.43;;;4.28;;
36855;SDS011;22788;51.434;6.786;2023-08-20T14:31:04;6.45;;;4.25;;
36855;SDS011;22788;51.434;6.786;2023-08-20T14:33:30;5.55;;;4.05;;
36855;SDS011;22788;51.434;6.786;2023-08-20T14:35:56;7.63;;;4.35;;
36855;SDS011;22788;51.434;6.786;2023-08-20T14:38:21;4.30;;;3.60;;
36855;SDS011;22788;51.434;6.786;2023-08-20T14:40:47;8.20;;;4.03;;